sensor_id;sensor_type;location;lat;lon;timestamp;pressure;altitude;pressure_sealevel;temperature;humidity
29385;BME280;16367;48.736;9.218;2023-02-18T00:01:11;-23522.69;;;11.21;100.00
29385;BME280;16367;48.736;9.218;2023-02-18T00:03:14;-23521.88;;;11.19;100.00
29385;BME280;16367;48.736;9.218;2023-02-18T00:05:17;-23519.81;;;11.12;100.00
29385;BME280;16367;48.736;9.218;2023-02-18T00:07:20;-23519.81;;;11.12;100.00
29385;BME280;16367;48.736;9.218;2023-02-18T00:09:22;-23519.03;;;11.10;100.00
29385;BME280;16367;48.736;9.218;2023-02-18T00:11:25;-23520.78;;;11.15;100.00
29385;BME280;16367;48.736;9.218;2023-02-18T00:13:28;-23519.66;;;11.12;100.00
29385;BME280;16367;48.736;9.218;2023-02-18T00:15:31;-23518.25;;;11.07;100.00
29385;BME280;16367;48.736;9.218;2023-02-18T00:17:35;-23520.78;;;11.15;100.00
29385;BME280;16367;48.736;9.218;2023-02-18T00:19:38;-23519.81;;;11.12;100.00
29385;BME280;16367;48.736;9.218;2023-02-18T00:21:42;-23521.25;;;11.17;100.00
29385;BME280;16367;48.736;9.218;2023-02-18T00:23:45;-23520.94;;;11.16;100.00
29385;BME280;16367;48.736;9.218;2023-02-18T00:25:48;-23518.56;;;11.08;100.00
29385;BME280;16367;48.736;9.218;2023-02-18T00:27:50;-23517.63;;;11.05;100.00
29385;BME280;16367;48.736;9.218;2023-02-18T00:29:53;-23516.66;;;11.02;100.00
29385;BME280;16367;48.736;9.218;2023-02-18T00:31:56;-23516.97;;;11.03;100.00
29385;BME280;16367;48.736;9.218;2023-02-18T00:34:01;-23516.66;;;11.02;100.00
29385;BME280;16367;48.736;9.218;2023-02-18T00:36:07;-23518.09;;;11.07;100.00
29385;BME280;16367;48.736;9.218;2023-02-18T00:38:10;-23516.81;;;11.03;100.00
29385;BME280;16367;48.736;9.218;2023-02-18T00:42:16;-23516.97;;;11.03;100.00
29385;BME280;16367;48.736;9.218;2023-02-18T00:44:19;-23519.81;;;11.12;100.00
29385;BME280;16367;48.736;9.218;2023-02-18T00:46:22;-23518.41;;;11.08;100.00
29385;BME280;16367;48.736;9.218;2023-02-18T00:48:25;-23518.25;;;11.07;100.00
29385;BME280;16367;48.736;9.218;2023-02-18T00:50:29;-23517.94;;;11.06;100.00
29385;BME280;16367;48.736;9.218;2023-02-18T00:52:32;-23516.34;;;11.01;100.00
29385;BME280;16367;48.736;9.218;2023-02-18T00:54:34;-23515.06;;;10.97;100.00
29385;BME280;16367;48.736;9.218;2023-02-18T00:56:37;-23514.44;;;10.95;100.00
29385;BME280;16367;48.736;9.218;2023-02-18T00:58:40;-23518.72;;;11.09;100.00
29385;BME280;16367;48.736;9.218;2023-02-18T01:00:43;-23515.41;;;10.98;100.00
29385;BME280;16367;48.736;9.218;2023-02-18T01:02:46;-23513.19;;;10.91;100.00
29385;BME280;16367;48.736;9.218;2023-02-18T01:04:48;-23513.34;;;10.92;100.00
29385;BME280;16367;48.736;9.218;2023-02-18T01:06:52;-23513.34;;;10.92;100.00
29385;BME280;16367;48.736;9.218;2023-02-18T01:08:55;-23514.75;;;10.96;100.00
29385;BME280;16367;48.736;9.218;2023-02-18T01:10:58;-23514.75;;;10.96;100.00
29385;BME280;16367;48.736;9.218;2023-02-18T01:13:01;-23514.75;;;10.96;100.00
29385;BME280;16367;48.736;9.218;2023-02-18T01:15:05;-23513.34;;;10.92;100.00
29385;BME280;16367;48.736;9.218;2023-02-18T01:17:09;-23513.19;;;10.91;100.00
29385;BME280;16367;48.736;9.218;2023-02-18T01:19:11;-23512.84;;;10.90;100.00
29385;BME280;16367;48.736;9.218;2023-02-18T01:21:15;-23512.72;;;10.90;100.00
29385;BME280;16367;48.736;9.218;2023-02-18T01:23:19;-23510.66;;;10.83;100.00
29385;BME280;16367;48.736;9.218;2023-02-18T01:25:22;-23513.03;;;10.91;100.00
29385;BME280;16367;48.736;9.218;2023-02-18T01:27:24;-23512.84;;;10.90;100.00
29385;BME280;16367;48.736;9.218;2023-02-18T01:29:27;-23512.06;;;10.88;100.00
29385;BME280;16367;48.736;9.218;2023-02-18T01:31:30;-23510.50;;;10.83;100.00
29385;BME280;16367;48.736;9.218;2023-02-18T01:33:32;-23512.38;;;10.89;100.00
29385;BME280;16367;48.736;9.218;2023-02-18T01:35:37;-23512.84;;;10.90;100.00
29385;BME280;16367;48.736;9.218;2023-02-18T01:37:40;-23510.81;;;10.84;100.00
29385;BME280;16367;48.736;9.218;2023-02-18T01:39:44;-23511.59;;;10.86;100.00
29385;BME280;16367;48.736;9.218;2023-02-18T01:41:47;-23510.66;;;10.83;100.00
29385;BME280;16367;48.736;9.218;2023-02-18T01:44:11;-23510.31;;;10.82;100.00
29385;BME280;16367;48.736;9.218;2023-02-18T01:46:15;-23512.22;;;10.88;100.00
29385;BME280;16367;48.736;9.218;2023-02-18T01:48:21;-23512.72;;;10.90;100.00
29385;BME280;16367;48.736;9.218;2023-02-18T01:50:25;-23510.66;;;10.83;100.00
29385;BME280;16367;48.736;9.218;2023-02-18T01:52:28;-23511.59;;;10.86;100.00
29385;BME280;16367;48.736;9.218;2023-02-18T01:54:36;-23510.00;;;10.81;100.00
29385;BME280;16367;48.736;9.218;2023-02-18T01:56:44;-23508.44;;;10.76;100.00
29385;BME280;16367;48.736;9.218;2023-02-18T01:58:49;-23507.16;;;10.72;100.00
29385;BME280;16367;48.736;9.218;2023-02-18T02:00:53;-23508.09;;;10.75;100.00
29385;BME280;16367;48.736;9.218;2023-02-18T02:02:56;-23507.78;;;10.74;100.00
29385;BME280;16367;48.736;9.218;2023-02-18T02:04:59;-23508.75;;;10.77;100.00
29385;BME280;16367;48.736;9.218;2023-02-18T02:07:02;-23504.94;;;10.65;100.00
29385;BME280;16367;48.736;9.218;2023-02-18T02:09:07;-23507.00;;;10.72;100.00
29385;BME280;16367;48.736;9.218;2023-02-18T02:11:20;-23506.84;;;10.71;100.00
29385;BME280;16367;48.736;9.218;2023-02-18T02:13:36;-23506.06;;;10.69;100.00
29385;BME280;16367;48.736;9.218;2023-02-18T02:15:47;-23507.16;;;10.72;100.00
29385;BME280;16367;48.736;9.218;2023-02-18T02:18:00;-23507.47;;;10.73;100.00
29385;BME280;16367;48.736;9.218;2023-02-18T02:23:33;-23505.72;;;10.68;100.00
29385;BME280;16367;48.736;9.218;2023-02-18T02:26:11;-23508.44;;;10.76;100.00
29385;BME280;16367;48.736;9.218;2023-02-18T02:28:46;-23508.44;;;10.76;100.00
29385;BME280;16367;48.736;9.218;2023-02-18T02:31:20;-23506.84;;;10.71;100.00
29385;BME280;16367;48.736;9.218;2023-02-18T02:33:50;-23509.53;;;10.80;100.00
29385;BME280;16367;48.736;9.218;2023-02-18T02:36:00;-23508.59;;;10.77;100.00
29385;BME280;16367;48.736;9.218;2023-02-18T02:38:07;-23509.38;;;10.79;100.00
29385;BME280;16367;48.736;9.218;2023-02-18T02:40:20;-23509.38;;;10.79;100.00
29385;BME280;16367;48.736;9.218;2023-02-18T02:42:39;-23507.00;;;10.72;100.00
29385;BME280;16367;48.736;9.218;2023-02-18T02:44:54;-23509.38;;;10.79;100.00
29385;BME280;16367;48.736;9.218;2023-02-18T02:47:03;-23504.78;;;10.65;100.00
29385;BME280;16367;48.736;9.218;2023-02-18T02:49:19;-23506.53;;;10.70;100.00
29385;BME280;16367;48.736;9.218;2023-02-18T02:51:31;-23505.56;;;10.67;100.00
29385;BME280;16367;48.736;9.218;2023-02-18T02:53:38;-23503.69;;;10.61;100.00
29385;BME280;16367;48.736;9.218;2023-02-18T02:55:42;-23505.72;;;10.68;100.00
29385;BME280;16367;48.736;9.218;2023-02-18T02:57:48;-23504.31;;;10.63;100.00
29385;BME280;16367;48.736;9.218;2023-02-18T02:59:53;-23504.47;;;10.64;100.00
29385;BME280;16367;48.736;9.218;2023-02-18T03:02:11;-23504.00;;;10.62;100.00
29385;BME280;16367;48.736;9.218;2023-02-18T03:04:49;-23499.56;;;10.48;100.00
29385;BME280;16367;48.736;9.218;2023-02-18T03:07:12;-23497.66;;;10.42;100.00
29385;BME280;16367;48.736;9.218;2023-02-18T03:09:22;-23495.28;;;10.34;100.00
29385;BME280;16367;48.736;9.218;2023-02-18T03:11:28;-23495.75;;;10.36;100.00
29385;BME280;16367;48.736;9.218;2023-02-18T03:13:44;-23492.91;;;10.27;100.00
29385;BME280;16367;48.736;9.218;2023-02-18T03:15:55;-23492.59;;;10.26;100.00
29385;BME280;16367;48.736;9.218;2023-02-18T03:18:02;-23492.25;;;10.25;100.00
29385;BME280;16367;48.736;9.218;2023-02-18T03:20:11;-23492.75;;;10.26;100.00
29385;BME280;16367;48.736;9.218;2023-02-18T03:22:20;-23490.03;;;10.18;100.00
29385;BME280;16367;48.736;9.218;2023-02-18T03:24:26;-23487.34;;;10.09;100.00
29385;BME280;16367;48.736;9.218;2023-02-18T03:26:31;-23487.50;;;10.10;100.00
29385;BME280;16367;48.736;9.218;2023-02-18T03:28:37;-23487.19;;;10.09;100.00
29385;BME280;16367;48.736;9.218;2023-02-18T03:30:42;-23485.75;;;10.04;100.00
29385;BME280;16367;48.736;9.218;2023-02-18T03:32:48;-23484.66;;;10.01;100.00
29385;BME280;16367;48.736;9.218;2023-02-18T03:34:57;-23483.72;;;9.98;100.00
29385;BME280;16367;48.736;9.218;2023-02-18T03:37:02;-23482.44;;;9.94;100.00
29385;BME280;16367;48.736;9.218;2023-02-18T03:39:09;-23483.72;;;9.98;100.00
29385;BME280;16367;48.736;9.218;2023-02-18T03:41:15;-23483.53;;;9.97;100.00
29385;BME280;16367;48.736;9.218;2023-02-18T03:43:18;-23482.59;;;9.94;100.00
29385;BME280;16367;48.736;9.218;2023-02-18T03:45:20;-23479.59;;;9.85;100.00
29385;BME280;16367;48.736;9.218;2023-02-18T03:47:23;-23479.25;;;9.84;100.00
29385;BME280;16367;48.736;9.218;2023-02-18T03:49:26;-23482.28;;;9.93;100.00
29385;BME280;16367;48.736;9.218;2023-02-18T03:51:29;-23481.47;;;9.91;100.00
29385;BME280;16367;48.736;9.218;2023-02-18T03:53:32;-23481.16;;;9.90;100.00
29385;BME280;16367;48.736;9.218;2023-02-18T03:55:36;-23483.53;;;9.97;100.00
29385;BME280;16367;48.736;9.218;2023-02-18T03:57:39;-23482.44;;;9.94;100.00
29385;BME280;16367;48.736;9.218;2023-02-18T03:59:41;-23482.91;;;9.95;100.00
29385;BME280;16367;48.736;9.218;2023-02-18T04:01:44;-23483.84;;;9.98;100.00
29385;BME280;16367;48.736;9.218;2023-02-18T04:03:47;-23481.97;;;9.92;100.00
29385;BME280;16367;48.736;9.218;2023-02-18T04:05:50;-23481.81;;;9.92;100.00
29385;BME280;16367;48.736;9.218;2023-02-18T04:07:52;-23482.91;;;9.95;100.00
29385;BME280;16367;48.736;9.218;2023-02-18T04:09:55;-23487.66;;;10.10;100.00
29385;BME280;16367;48.736;9.218;2023-02-18T04:11:59;-23485.59;;;10.04;100.00
29385;BME280;16367;48.736;9.218;2023-02-18T04:14:01;-23487.50;;;10.10;100.00
29385;BME280;16367;48.736;9.218;2023-02-18T04:16:05;-23484.19;;;9.99;100.00
29385;BME280;16367;48.736;9.218;2023-02-18T04:18:08;-23484.97;;;10.02;100.00
29385;BME280;16367;48.736;9.218;2023-02-18T04:20:11;-23486.41;;;10.06;100.00
29385;BME280;16367;48.736;9.218;2023-02-18T04:22:14;-23485.75;;;10.04;100.00
29385;BME280;16367;48.736;9.218;2023-02-18T04:24:17;-23484.97;;;10.02;100.00
29385;BME280;16367;48.736;9.218;2023-02-18T04:26:19;-23483.22;;;9.96;100.00
29385;BME280;16367;48.736;9.218;2023-02-18T04:28:24;-23485.28;;;10.03;100.00
29385;BME280;16367;48.736;9.218;2023-02-18T04:30:27;-23485.75;;;10.04;100.00
29385;BME280;16367;48.736;9.218;2023-02-18T04:32:30;-23485.91;;;10.05;100.00
29385;BME280;16367;48.736;9.218;2023-02-18T04:34:32;-23484.66;;;10.01;100.00
29385;BME280;16367;48.736;9.218;2023-02-18T04:36:35;-23485.28;;;10.03;100.00
29385;BME280;16367;48.736;9.218;2023-02-18T04:38:37;-23483.22;;;9.96;100.00
29385;BME280;16367;48.736;9.218;2023-02-18T04:40:42;-23482.44;;;9.94;100.00
29385;BME280;16367;48.736;9.218;2023-02-18T04:42:45;-23484.34;;;10.00;100.00
29385;BME280;16367;48.736;9.218;2023-02-18T04:44:49;-23483.06;;;9.96;100.00
29385;BME280;16367;48.736;9.218;2023-02-18T04:46:51;-23485.13;;;10.02;100.00
29385;BME280;16367;48.736;9.218;2023-02-18T04:48:54;-23485.59;;;10.04;100.00
29385;BME280;16367;48.736;9.218;2023-02-18T04:50:57;-23482.44;;;9.94;100.00
29385;BME280;16367;48.736;9.218;2023-02-18T04:52:59;-23481.97;;;9.92;100.00
29385;BME280;16367;48.736;9.218;2023-02-18T04:55:02;-23481.16;;;9.90;100.00
29385;BME280;16367;48.736;9.218;2023-02-18T04:57:05;-23481.47;;;9.91;100.00
29385;BME280;16367;48.736;9.218;2023-02-18T04:59:07;-23479.25;;;9.84;100.00
29385;BME280;16367;48.736;9.218;2023-02-18T05:01:15;-23478.31;;;9.81;100.00
29385;BME280;16367;48.736;9.218;2023-02-18T05:03:18;-23477.53;;;9.78;100.00
29385;BME280;16367;48.736;9.218;2023-02-18T05:05:21;-23477.38;;;9.77;100.00
29385;BME280;16367;48.736;9.218;2023-02-18T05:07:23;-23476.72;;;9.75;100.00
29385;BME280;16367;48.736;9.218;2023-02-18T05:09:26;-23475.78;;;9.72;100.00
29385;BME280;16367;48.736;9.218;2023-02-18T05:11:29;-23475.78;;;9.72;100.00
29385;BME280;16367;48.736;9.218;2023-02-18T05:13:31;-23474.97;;;9.70;100.00
29385;BME280;16367;48.736;9.218;2023-02-18T05:15:34;-23476.88;;;9.76;100.00
29385;BME280;16367;48.736;9.218;2023-02-18T05:17:38;-23474.34;;;9.68;100.00
29385;BME280;16367;48.736;9.218;2023-02-18T05:19:41;-23474.34;;;9.68;100.00
29385;BME280;16367;48.736;9.218;2023-02-18T05:21:44;-23472.28;;;9.61;100.00
29385;BME280;16367;48.736;9.218;2023-02-18T05:23:46;-23471.66;;;9.59;100.00
29385;BME280;16367;48.736;9.218;2023-02-18T05:25:49;-23472.44;;;9.62;100.00
29385;BME280;16367;48.736;9.218;2023-02-18T05:27:52;-23472.91;;;9.63;100.00
29385;BME280;16367;48.736;9.218;2023-02-18T05:29:54;-23473.25;;;9.64;100.00
29385;BME280;16367;48.736;9.218;2023-02-18T05:31:57;-23473.25;;;9.64;100.00
29385;BME280;16367;48.736;9.218;2023-02-18T05:34:01;-23471.34;;;9.58;100.00
29385;BME280;16367;48.736;9.218;2023-02-18T05:36:04;-23469.75;;;9.53;100.00
29385;BME280;16367;48.736;9.218;2023-02-18T05:38:07;-23472.28;;;9.61;100.00
29385;BME280;16367;48.736;9.218;2023-02-18T05:40:11;-23470.22;;;9.55;100.00
29385;BME280;16367;48.736;9.218;2023-02-18T05:42:13;-23468.50;;;9.49;100.00
29385;BME280;16367;48.736;9.218;2023-02-18T05:44:16;-23466.56;;;9.43;100.00
29385;BME280;16367;48.736;9.218;2023-02-18T05:46:34;-23469.13;;;9.51;100.00
29385;BME280;16367;48.736;9.218;2023-02-18T05:48:36;-23470.69;;;9.56;100.00
29385;BME280;16367;48.736;9.218;2023-02-18T05:50:41;-23471.03;;;9.57;100.00
29385;BME280;16367;48.736;9.218;2023-02-18T05:52:43;-23470.06;;;9.54;100.00
29385;BME280;16367;48.736;9.218;2023-02-18T05:54:46;-23469.44;;;9.52;100.00
29385;BME280;16367;48.736;9.218;2023-02-18T05:56:49;-23472.59;;;9.62;100.00
29385;BME280;16367;48.736;9.218;2023-02-18T05:58:51;-23471.66;;;9.59;100.00
29385;BME280;16367;48.736;9.218;2023-02-18T06:00:54;-23470.69;;;9.56;100.00
29385;BME280;16367;48.736;9.218;2023-02-18T06:02:57;-23469.75;;;9.53;100.00
29385;BME280;16367;48.736;9.218;2023-02-18T06:04:59;-23471.03;;;9.57;100.00
29385;BME280;16367;48.736;9.218;2023-02-18T06:07:03;-23472.28;;;9.61;100.00
29385;BME280;16367;48.736;9.218;2023-02-18T06:09:07;-23471.97;;;9.60;100.00
29385;BME280;16367;48.736;9.218;2023-02-18T06:11:09;-23475.16;;;9.70;100.00
29385;BME280;16367;48.736;9.218;2023-02-18T06:13:12;-23472.28;;;9.61;100.00
29385;BME280;16367;48.736;9.218;2023-02-18T06:15:15;-23470.69;;;9.56;100.00
29385;BME280;16367;48.736;9.218;2023-02-18T06:17:17;-23471.50;;;9.59;100.00
29385;BME280;16367;48.736;9.218;2023-02-18T06:19:20;-23471.66;;;9.59;100.00
29385;BME280;16367;48.736;9.218;2023-02-18T06:21:23;-23469.44;;;9.52;100.00
29385;BME280;16367;48.736;9.218;2023-02-18T06:23:27;-23467.84;;;9.47;100.00
29385;BME280;16367;48.736;9.218;2023-02-18T06:25:30;-23471.66;;;9.59;100.00
29385;BME280;16367;48.736;9.218;2023-02-18T06:27:32;-23472.91;;;9.63;100.00
29385;BME280;16367;48.736;9.218;2023-02-18T06:29:35;-23471.34;;;9.58;100.00
29385;BME280;16367;48.736;9.218;2023-02-18T06:31:38;-23473.56;;;9.65;100.00
29385;BME280;16367;48.736;9.218;2023-02-18T06:33:41;-23473.09;;;9.64;100.00
29385;BME280;16367;48.736;9.218;2023-02-18T06:35:52;-23472.75;;;9.63;100.00
29385;BME280;16367;48.736;9.218;2023-02-18T06:37:54;-23474.19;;;9.67;100.00
29385;BME280;16367;48.736;9.218;2023-02-18T06:39:58;-23477.03;;;9.76;100.00
29385;BME280;16367;48.736;9.218;2023-02-18T06:42:01;-23474.81;;;9.69;100.00
29385;BME280;16367;48.736;9.218;2023-02-18T06:44:04;-23476.09;;;9.73;100.00
29385;BME280;16367;48.736;9.218;2023-02-18T06:46:07;-23477.53;;;9.78;100.00
29385;BME280;16367;48.736;9.218;2023-02-18T06:48:10;-23481.00;;;9.89;100.00
29385;BME280;16367;48.736;9.218;2023-02-18T06:50:14;-23481.47;;;9.91;100.00
29385;BME280;16367;48.736;9.218;2023-02-18T06:52:16;-23485.28;;;10.03;100.00
29385;BME280;16367;48.736;9.218;2023-02-18T06:54:19;-23481.16;;;9.90;100.00
29385;BME280;16367;48.736;9.218;2023-02-18T06:56:23;-23481.16;;;9.90;100.00
29385;BME280;16367;48.736;9.218;2023-02-18T06:58:26;-23481.00;;;9.89;100.00
29385;BME280;16367;48.736;9.218;2023-02-18T07:00:28;-23487.50;;;10.10;100.00
29385;BME280;16367;48.736;9.218;2023-02-18T07:02:31;-23482.28;;;9.93;100.00
29385;BME280;16367;48.736;9.218;2023-02-18T07:04:34;-23484.66;;;10.01;100.00
29385;BME280;16367;48.736;9.218;2023-02-18T07:06:37;-23484.81;;;10.01;100.00
29385;BME280;16367;48.736;9.218;2023-02-18T07:08:39;-23484.97;;;10.02;100.00
29385;BME280;16367;48.736;9.218;2023-02-18T07:10:42;-23486.25;;;10.06;100.00
29385;BME280;16367;48.736;9.218;2023-02-18T07:12:46;-23488.31;;;10.12;100.00
29385;BME280;16367;48.736;9.218;2023-02-18T07:14:49;-23489.72;;;10.17;100.00
29385;BME280;16367;48.736;9.218;2023-02-18T07:16:52;-23489.41;;;10.16;100.00
29385;BME280;16367;48.736;9.218;2023-02-18T07:18:55;-23490.03;;;10.18;100.00
29385;BME280;16367;48.736;9.218;2023-02-18T07:20:57;-23490.69;;;10.20;100.00
29385;BME280;16367;48.736;9.218;2023-02-18T07:23:00;-23490.03;;;10.18;100.00
29385;BME280;16367;48.736;9.218;2023-02-18T07:25:03;-23490.03;;;10.18;100.00
29385;BME280;16367;48.736;9.218;2023-02-18T07:27:05;-23494.66;;;10.32;100.00
29385;BME280;16367;48.736;9.218;2023-02-18T07:29:09;-23492.75;;;10.26;100.00
29385;BME280;16367;48.736;9.218;2023-02-18T07:31:12;-23493.84;;;10.30;100.00
29385;BME280;16367;48.736;9.218;2023-02-18T07:33:15;-23494.16;;;10.31;100.00
29385;BME280;16367;48.736;9.218;2023-02-18T07:35:17;-23494.81;;;10.33;100.00
29385;BME280;16367;48.736;9.218;2023-02-18T07:37:21;-23497.34;;;10.41;100.00
29385;BME280;16367;48.736;9.218;2023-02-18T07:39:24;-23497.50;;;10.41;100.00
29385;BME280;16367;48.736;9.218;2023-02-18T07:41:27;-23500.19;;;10.50;100.00
29385;BME280;16367;48.736;9.218;2023-02-18T07:43:30;-23501.13;;;10.53;100.00
29385;BME280;16367;48.736;9.218;2023-02-18T07:45:34;-23502.41;;;10.57;100.00
29385;BME280;16367;48.736;9.218;2023-02-18T07:47:36;-23502.41;;;10.57;100.00
29385;BME280;16367;48.736;9.218;2023-02-18T07:49:39;-23504.00;;;10.62;100.00
29385;BME280;16367;48.736;9.218;2023-02-18T07:51:42;-23505.41;;;10.67;100.00
29385;BME280;16367;48.736;9.218;2023-02-18T07:53:45;-23507.47;;;10.73;100.00
29385;BME280;16367;48.736;9.218;2023-02-18T07:55:47;-23509.53;;;10.80;100.00
29385;BME280;16367;48.736;9.218;2023-02-18T07:57:50;-23507.63;;;10.74;100.00
29385;BME280;16367;48.736;9.218;2023-02-18T08:00:01;-23509.22;;;10.79;100.00
29385;BME280;16367;48.736;9.218;2023-02-18T08:02:06;-23515.56;;;10.99;100.00
29385;BME280;16367;48.736;9.218;2023-02-18T08:04:08;-23517.94;;;11.06;100.00
29385;BME280;16367;48.736;9.218;2023-02-18T08:06:20;-23520.78;;;11.15;100.00
29385;BME280;16367;48.736;9.218;2023-02-18T08:08:24;-23522.38;;;11.20;100.00
29385;BME280;16367;48.736;9.218;2023-02-18T08:10:27;-23521.56;;;11.18;100.00
29385;BME280;16367;48.736;9.218;2023-02-18T08:12:30;-23523.94;;;11.25;99.61
29385;BME280;16367;48.736;9.218;2023-02-18T08:14:32;-23523.00;;;11.22;99.17
29385;BME280;16367;48.736;9.218;2023-02-18T08:16:35;-23529.66;;;11.44;96.99
29385;BME280;16367;48.736;9.218;2023-02-18T08:18:39;-23530.28;;;11.46;96.47
29385;BME280;16367;48.736;9.218;2023-02-18T08:20:42;-23527.13;;;11.36;97.18
29385;BME280;16367;48.736;9.218;2023-02-18T08:22:45;-23527.44;;;11.37;96.91
29385;BME280;16367;48.736;9.218;2023-02-18T08:24:48;-23527.75;;;11.38;96.17
29385;BME280;16367;48.736;9.218;2023-02-18T08:26:51;-23530.91;;;11.48;95.52
29385;BME280;16367;48.736;9.218;2023-02-18T08:29:01;-23534.38;;;11.59;95.02
29385;BME280;16367;48.736;9.218;2023-02-18T08:31:04;-23535.97;;;11.64;93.99
29385;BME280;16367;48.736;9.218;2023-02-18T08:33:07;-23537.41;;;11.68;93.61
29385;BME280;16367;48.736;9.218;2023-02-18T08:35:11;-23537.56;;;11.69;93.20
29385;BME280;16367;48.736;9.218;2023-02-18T08:37:14;-23539.78;;;11.76;92.99
29385;BME280;16367;48.736;9.218;2023-02-18T08:39:17;-23542.94;;;11.86;91.65
29385;BME280;16367;48.736;9.218;2023-02-18T08:41:20;-23542.31;;;11.84;91.85
29385;BME280;16367;48.736;9.218;2023-02-18T08:43:22;-23539.94;;;11.76;91.70
29385;BME280;16367;48.736;9.218;2023-02-18T08:45:25;-23543.88;;;11.89;91.38
29385;BME280;16367;48.736;9.218;2023-02-18T08:47:28;-23545.47;;;11.94;91.01
29385;BME280;16367;48.736;9.218;2023-02-18T08:49:51;-23540.25;;;11.77;91.03
29385;BME280;16367;48.736;9.218;2023-02-18T08:51:55;-23549.75;;;12.08;90.13
29385;BME280;16367;48.736;9.218;2023-02-18T08:53:58;-23548.97;;;12.05;88.52
29385;BME280;16367;48.736;9.218;2023-02-18T08:56:04;-23549.75;;;12.08;88.34
29385;BME280;16367;48.736;9.218;2023-02-18T08:58:07;-23551.81;;;12.14;88.69
29385;BME280;16367;48.736;9.218;2023-02-18T09:00:11;-23553.06;;;12.18;88.42
29385;BME280;16367;48.736;9.218;2023-02-18T09:02:15;-23549.28;;;12.06;88.34
29385;BME280;16367;48.736;9.218;2023-02-18T09:04:18;-23557.97;;;12.34;88.03
29385;BME280;16367;48.736;9.218;2023-02-18T09:06:21;-23561.59;;;12.45;87.06
29385;BME280;16367;48.736;9.218;2023-02-18T09:08:26;-23562.88;;;12.49;86.47
29385;BME280;16367;48.736;9.218;2023-02-18T09:10:29;-23561.28;;;12.44;86.35
29385;BME280;16367;48.736;9.218;2023-02-18T09:12:32;-23561.44;;;12.45;86.13
29385;BME280;16367;48.736;9.218;2023-02-18T09:14:35;-23561.78;;;12.46;85.31
29385;BME280;16367;48.736;9.218;2023-02-18T09:16:39;-23566.97;;;12.62;84.22
29385;BME280;16367;48.736;9.218;2023-02-18T09:18:42;-23566.97;;;12.62;84.55
29385;BME280;16367;48.736;9.218;2023-02-18T09:20:44;-23564.13;;;12.53;84.08
29385;BME280;16367;48.736;9.218;2023-02-18T09:22:47;-23568.88;;;12.68;84.03
29385;BME280;16367;48.736;9.218;2023-02-18T09:24:51;-23560.66;;;12.42;84.23
29385;BME280;16367;48.736;9.218;2023-02-18T09:26:54;-23562.56;;;12.48;84.51
29385;BME280;16367;48.736;9.218;2023-02-18T09:28:56;-23568.56;;;12.67;83.39
29385;BME280;16367;48.736;9.218;2023-02-18T09:31:03;-23568.25;;;12.66;83.49
29385;BME280;16367;48.736;9.218;2023-02-18T09:33:07;-23568.25;;;12.66;82.11
29385;BME280;16367;48.736;9.218;2023-02-18T09:35:09;-23568.88;;;12.68;82.68
29385;BME280;16367;48.736;9.218;2023-02-18T09:37:12;-23563.19;;;12.50;84.16
29385;BME280;16367;48.736;9.218;2023-02-18T09:39:16;-23571.25;;;12.76;83.95
29385;BME280;16367;48.736;9.218;2023-02-18T09:41:30;-23565.25;;;12.57;84.36
29385;BME280;16367;48.736;9.218;2023-02-18T09:43:39;-23562.25;;;12.47;85.24
29385;BME280;16367;48.736;9.218;2023-02-18T09:45:44;-23568.72;;;12.68;83.92
29385;BME280;16367;48.736;9.218;2023-02-18T09:47:48;-23560.81;;;12.43;84.72
29385;BME280;16367;48.736;9.218;2023-02-18T09:49:54;-23569.84;;;12.71;84.55
29385;BME280;16367;48.736;9.218;2023-02-18T09:52:03;-23564.63;;;12.55;83.51
29385;BME280;16367;48.736;9.218;2023-02-18T09:54:08;-23568.25;;;12.66;82.97
29385;BME280;16367;48.736;9.218;2023-02-18T09:56:14;-23572.53;;;12.80;82.83
29385;BME280;16367;48.736;9.218;2023-02-18T09:58:21;-23563.81;;;12.52;83.25
29385;BME280;16367;48.736;9.218;2023-02-18T10:00:28;-23571.88;;;12.78;82.62
29385;BME280;16367;48.736;9.218;2023-02-18T10:02:34;-23568.41;;;12.67;81.98
29385;BME280;16367;48.736;9.218;2023-02-18T10:04:40;-23570.94;;;12.75;82.34
29385;BME280;16367;48.736;9.218;2023-02-18T10:06:47;-23572.34;;;12.80;81.90
29385;BME280;16367;48.736;9.218;2023-02-18T10:08:51;-23578.38;;;12.99;81.29
29385;BME280;16367;48.736;9.218;2023-02-18T10:10:55;-23583.59;;;13.15;80.21
29385;BME280;16367;48.736;9.218;2023-02-18T10:12:58;-23588.50;;;13.31;79.57
29385;BME280;16367;48.736;9.218;2023-02-18T10:15:06;-23573.00;;;12.82;80.16
29385;BME280;16367;48.736;9.218;2023-02-18T10:17:14;-23570.47;;;12.73;81.36
29385;BME280;16367;48.736;9.218;2023-02-18T10:19:22;-23573.47;;;12.83;81.28
29385;BME280;16367;48.736;9.218;2023-02-18T10:21:27;-23567.94;;;12.65;81.81
29385;BME280;16367;48.736;9.218;2023-02-18T10:23:33;-23569.03;;;12.69;81.34
29385;BME280;16367;48.736;9.218;2023-02-18T10:25:42;-23567.94;;;12.65;81.58
29385;BME280;16367;48.736;9.218;2023-02-18T10:27:47;-23577.72;;;12.97;80.70
29385;BME280;16367;48.736;9.218;2023-02-18T10:29:51;-23568.88;;;12.68;80.18
29385;BME280;16367;48.736;9.218;2023-02-18T10:31:58;-23578.38;;;12.99;79.63
29385;BME280;16367;48.736;9.218;2023-02-18T10:34:12;-23577.09;;;12.95;78.92
29385;BME280;16367;48.736;9.218;2023-02-18T10:36:24;-23576.63;;;12.93;79.02
29385;BME280;16367;48.736;9.218;2023-02-18T10:38:35;-23574.88;;;12.88;79.44
29385;BME280;16367;48.736;9.218;2023-02-18T10:40:47;-23585.47;;;13.21;78.57
29385;BME280;16367;48.736;9.218;2023-02-18T10:43:02;-23576.47;;;12.93;78.51
29385;BME280;16367;48.736;9.218;2023-02-18T10:45:14;-23577.72;;;12.97;78.09
29385;BME280;16367;48.736;9.218;2023-02-18T10:47:35;-23585.16;;;13.20;77.50
29385;BME280;16367;48.736;9.218;2023-02-18T10:49:52;-23590.06;;;13.36;77.00
29385;BME280;16367;48.736;9.218;2023-02-18T10:51:58;-23583.44;;;13.15;76.99
29385;BME280;16367;48.736;9.218;2023-02-18T10:54:05;-23577.56;;;12.96;77.40
29385;BME280;16367;48.736;9.218;2023-02-18T10:56:32;-23581.22;;;13.08;77.50